createdAt,value
2019-02-21T00:01:57.959Z,67.55
2019-02-21T00:04:27.818Z,67.65
2019-02-21T00:06:57.700Z,67.94
2019-02-21T00:09:28.298Z,67.92
2019-02-21T00:11:58.160Z,67.79
2019-02-21T00:14:28.279Z,68.66
2019-02-21T00:16:59.243Z,68.30
2019-02-21T00:19:29.146Z,68.50
2019-02-21T00:21:58.983Z,69.09
2019-02-21T00:24:28.818Z,69.52
2019-02-21T00:26:58.751Z,69.43
2019-02-21T00:29:28.858Z,70.58
2019-02-21T00:31:58.735Z,70.72
2019-02-21T00:34:28.574Z,70.79
2019-02-21T00:36:58.524Z,70.83
2019-02-21T00:39:28.385Z,70.82
2019-02-21T00:41:58.567Z,70.70
2019-02-21T00:44:28.663Z,70.71
2019-02-21T00:46:58.537Z,70.57
2019-02-21T00:49:28.423Z,70.71
2019-02-21T00:51:58.269Z,70.94
2019-02-21T00:54:28.229Z,70.65
2019-02-21T00:56:58.323Z,70.68
2019-02-21T00:59:28.480Z,70.56
2019-02-21T01:01:58.637Z,70.45
2019-02-21T01:04:28.530Z,70.34
2019-02-21T01:06:58.387Z,70.47
2019-02-21T01:09:28.277Z,70.58
2019-02-21T01:11:58.603Z,70.85
2019-02-21T01:14:28.762Z,70.77
2019-02-21T01:16:58.619Z,70.53
2019-02-21T01:19:28.533Z,70.76
2019-02-21T01:22:01.112Z,70.79
2019-02-21T01:24:31.202Z,70.91
2019-02-21T01:27:01.090Z,70.51
2019-02-21T01:29:30.951Z,70.45
2019-02-21T01:32:01.861Z,70.02
2019-02-21T01:34:31.683Z,69.67
2019-02-21T01:37:01.541Z,69.67
2019-02-21T01:39:31.618Z,69.45
2019-02-21T01:42:01.750Z,69.08
2019-02-21T01:44:31.622Z,68.92
2019-02-21T01:47:01.593Z,68.92
2019-02-21T01:49:31.669Z,68.68
2019-02-21T01:52:01.782Z,69.03
2019-02-21T01:54:31.906Z,69.03
2019-02-21T01:57:01.986Z,69.09
2019-02-21T01:59:32.360Z,69.13
2019-02-21T02:02:02.460Z,69.00
2019-02-21T02:04:33.411Z,69.18
2019-02-21T02:07:03.268Z,69.09
2019-02-21T02:09:33.379Z,68.90
2019-02-21T02:12:03.477Z,69.12
2019-02-21T02:14:33.371Z,68.90
2019-02-21T02:17:03.462Z,68.97
2019-02-21T02:19:33.437Z,68.96
2019-02-21T02:22:03.575Z,68.92
2019-02-21T02:24:33.413Z,69.11
2019-02-21T02:27:03.329Z,68.95
2019-02-21T02:29:33.205Z,69.37
2019-02-21T02:32:03.386Z,69.30
2019-02-21T02:34:33.395Z,69.33
2019-02-21T02:37:03.265Z,69.38
2019-02-21T02:39:33.115Z,69.11
2019-02-21T02:42:03.204Z,69.43
2019-02-21T02:44:33.350Z,69.58
2019-02-21T02:47:03.276Z,69.68
2019-02-21T02:49:33.361Z,70.08
2019-02-21T02:52:03.207Z,69.93
2019-02-21T02:54:33.320Z,70.09
2019-02-21T02:57:03.200Z,69.62
2019-02-21T02:59:40.790Z,69.48
2019-02-21T03:02:04.667Z,70.08
2019-02-21T03:04:34.584Z,69.96
2019-02-21T03:07:04.676Z,69.85
2019-02-21T03:09:34.810Z,69.75
2019-02-21T03:12:04.669Z,69.62
2019-02-21T03:14:34.788Z,69.39
2019-02-21T03:17:04.739Z,69.20
2019-02-21T03:19:34.852Z,69.45
2019-02-21T03:22:05.025Z,69.17
2019-02-21T03:24:34.917Z,69.47
2019-02-21T03:27:04.765Z,69.37
2019-02-21T03:29:34.886Z,69.33
2019-02-21T03:32:04.733Z,69.45
2019-02-21T03:34:34.625Z,69.72
2019-02-21T03:37:04.759Z,69.62
2019-02-21T03:39:34.605Z,69.41
2019-02-21T03:42:04.682Z,69.41
2019-02-21T03:44:34.525Z,69.66
2019-02-21T03:47:04.392Z,69.71
2019-02-21T03:49:34.260Z,69.62
2019-02-21T03:52:04.418Z,69.61
2019-02-21T03:54:34.357Z,69.62
2019-02-21T03:57:04.395Z,69.23
2019-02-21T03:59:34.510Z,69.13
2019-02-21T04:02:05.746Z,69.03
2019-02-21T04:04:36.186Z,69.24
2019-02-21T04:07:06.140Z,69.11
2019-02-21T04:09:35.995Z,69.31
2019-02-21T04:12:06.132Z,69.48
2019-02-21T04:14:36.191Z,69.96
2019-02-21T04:17:06.080Z,69.77
2019-02-21T04:19:36.290Z,70.34
2019-02-21T04:22:06.403Z,70.32
2019-02-21T04:24:36.310Z,70.49
2019-02-21T04:27:06.193Z,70.69
2019-02-21T04:29:36.093Z,71.08
2019-02-21T04:32:16.626Z,71.30
2019-02-21T04:34:38.099Z,71.16
2019-02-21T04:37:08.048Z,71.05
2019-02-21T04:39:37.951Z,71.30
2019-02-21T04:42:08.310Z,71.35
2019-02-21T04:44:38.751Z,70.84
2019-02-21T04:47:09.321Z,71.00
2019-02-21T04:49:39.458Z,70.73
2019-02-21T04:52:09.544Z,71.04
2019-02-21T04:54:39.683Z,70.91
2019-02-21T04:57:09.598Z,71.59
2019-02-21T04:59:40.353Z,71.86
2019-02-21T05:02:10.226Z,71.89
2019-02-21T05:04:40.117Z,71.91
2019-02-21T05:07:09.968Z,72.12
2019-02-21T05:09:39.873Z,71.60
2019-02-21T05:12:09.723Z,71.45
2019-02-21T05:14:40.074Z,71.73
2019-02-21T05:17:09.996Z,71.73
2019-02-21T05:19:39.917Z,71.55
2019-02-21T05:22:09.765Z,71.58
2019-02-21T05:24:39.640Z,71.38
2019-02-21T05:27:17.309Z,71.27
2019-02-21T05:29:47.147Z,71.30
2019-02-21T05:32:27.750Z,71.30
2019-02-21T05:35:22.554Z,71.35
2019-02-21T05:38:10.359Z,70.45
2019-02-21T05:41:14.101Z,70.26
2019-02-21T05:44:00.821Z,70.30
2019-02-21T05:46:52.690Z,69.92
2019-02-21T05:49:41.779Z,69.44
2019-02-21T05:52:19.247Z,69.57
2019-02-21T05:54:58.311Z,69.79
2019-02-21T05:57:50.467Z,69.67
2019-02-21T06:00:42.205Z,69.83
2019-02-21T06:03:31.875Z,69.94
2019-02-21T06:06:11.225Z,70.34
2019-02-21T06:08:50.571Z,70.56
2019-02-21T06:11:45.342Z,71.06
2019-02-21T06:14:28.433Z,71.50
2019-02-21T06:17:10.161Z,71.49
2019-02-21T06:19:48.108Z,71.75
2019-02-21T06:22:45.963Z,71.39
2019-02-21T06:25:21.202Z,71.09
2019-02-21T06:28:12.551Z,70.51
2019-02-21T06:30:49.908Z,70.02
2019-02-21T06:33:19.797Z,69.50
2019-02-21T06:35:49.914Z,69.45
2019-02-21T06:38:19.755Z,69.47
2019-02-21T06:40:50.119Z,68.73
2019-02-21T06:43:20.247Z,68.74
2019-02-21T06:45:50.099Z,68.83
2019-02-21T06:48:19.948Z,68.56
2019-02-21T06:50:50.075Z,68.74
2019-02-21T06:53:20.016Z,68.15
2019-02-21T06:55:49.881Z,68.22
2019-02-21T06:58:19.788Z,68.43
2019-02-21T07:00:49.640Z,68.46
2019-02-21T07:03:19.550Z,67.89
2019-02-21T07:05:49.404Z,68.03
2019-02-21T07:08:19.591Z,67.88
2019-02-21T07:10:49.456Z,68.42
2019-02-21T07:13:26.678Z,68.04
2019-02-21T07:15:51.101Z,67.73
2019-02-21T07:18:20.938Z,67.31
2019-02-21T07:20:51.086Z,67.86
2019-02-21T07:23:21.819Z,67.54
2019-02-21T07:25:55.715Z,67.27
2019-02-21T07:28:27.745Z,67.43
2019-02-21T07:30:57.176Z,66.98
2019-02-21T07:33:28.949Z,66.46
2019-02-21T07:35:59.202Z,65.46
2019-02-21T07:38:29.411Z,65.13
2019-02-21T07:40:59.594Z,64.24
2019-02-21T07:43:29.543Z,64.42
2019-02-21T07:45:59.639Z,64.87
2019-02-21T07:48:29.493Z,65.03
2019-02-21T07:50:59.362Z,65.14
2019-02-21T07:53:29.450Z,64.90
2019-02-21T07:55:59.769Z,65.44
2019-02-21T07:58:29.894Z,65.42
2019-02-21T08:01:00.017Z,65.14
2019-02-21T08:03:43.133Z,65.77
2019-02-21T08:06:01.502Z,65.65
2019-02-21T08:08:32.489Z,65.77
2019-02-21T08:11:02.772Z,65.70
2019-02-21T08:13:32.646Z,65.72
2019-02-21T08:16:02.580Z,65.24
2019-02-21T08:18:32.405Z,65.45
2019-02-21T08:21:02.283Z,65.68
2019-02-21T08:23:32.613Z,65.45
2019-02-21T08:26:02.499Z,65.31
2019-02-21T08:28:32.374Z,65.79
2019-02-21T08:31:02.307Z,66.26
2019-02-21T08:33:58.457Z,65.95
2019-02-21T08:36:22.681Z,66.21
2019-02-21T08:38:52.525Z,65.55
2019-02-21T08:41:25.572Z,65.81
2019-02-21T08:43:57.221Z,65.21
2019-02-21T08:46:26.315Z,64.31
2019-02-21T08:48:56.298Z,64.14
2019-02-21T08:51:26.364Z,64.02
2019-02-21T08:53:56.468Z,63.66
2019-02-21T08:56:26.338Z,63.33
2019-02-21T08:58:56.301Z,62.38
2019-02-21T09:01:26.226Z,61.89
2019-02-21T09:03:56.175Z,62.04
2019-02-21T09:06:26.439Z,61.61
2019-02-21T09:08:56.565Z,61.31
2019-02-21T09:11:26.490Z,61.85
2019-02-21T09:13:56.593Z,61.08
2019-02-21T09:16:26.481Z,60.72
2019-02-21T09:18:56.457Z,60.68
2019-02-21T09:21:26.872Z,59.97
2019-02-21T09:23:56.983Z,59.62
2019-02-21T09:26:26.921Z,58.36
2019-02-21T09:28:58.610Z,57.35
2019-02-21T09:31:28.696Z,57.64
2019-02-21T09:33:58.583Z,56.86
2019-02-21T09:36:28.922Z,56.77
2019-02-21T09:38:59.099Z,57.64
2019-02-21T09:41:29.038Z,57.36
2019-02-21T09:43:58.872Z,56.31
2019-02-21T09:46:28.745Z,53.71
2019-02-21T09:48:58.599Z,53.69
2019-02-21T09:51:28.513Z,54.06
2019-02-21T09:53:58.414Z,52.24
2019-02-21T09:56:30.787Z,50.63
2019-02-21T09:58:59.979Z,50.44
2019-02-21T10:01:29.858Z,51.29
2019-02-21T10:03:59.758Z,50.83
2019-02-21T10:06:29.587Z,50.81
2019-02-21T10:08:59.452Z,51.97
2019-02-21T10:11:29.345Z,50.33
2019-02-21T10:13:59.201Z,49.41
2019-02-21T10:16:29.038Z,47.59
2019-02-21T10:18:58.977Z,47.28
2019-02-21T10:21:29.085Z,49.24
2019-02-21T10:23:59.062Z,48.92
2019-02-21T10:26:29.210Z,49.93
2019-02-21T10:28:59.095Z,50.31
2019-02-21T10:31:29.175Z,50.22
2019-02-21T10:33:59.076Z,50.77
2019-02-21T10:36:29.412Z,50.91
2019-02-21T10:38:59.312Z,51.24
2019-02-21T10:41:29.175Z,51.69
2019-02-21T10:43:59.000Z,51.71
2019-02-21T10:46:30.772Z,51.77
2019-02-21T10:49:00.488Z,51.46
2019-02-21T10:51:30.593Z,52.32
2019-02-21T10:54:00.772Z,51.95
2019-02-21T10:56:30.863Z,51.37
2019-02-21T10:59:01.209Z,51.30
2019-02-21T11:01:31.997Z,51.88
2019-02-21T11:04:01.833Z,50.49
2019-02-21T11:06:31.689Z,51.24
2019-02-21T11:09:01.818Z,49.94
2019-02-21T11:11:31.778Z,49.54
2019-02-21T11:14:01.632Z,50.55
2019-02-21T11:16:31.459Z,50.68
2019-02-21T11:19:01.340Z,51.59
2019-02-21T11:21:31.432Z,51.13
2019-02-21T11:24:01.616Z,51.52
2019-02-21T11:26:31.751Z,51.39
2019-02-21T11:29:01.639Z,51.76
2019-02-21T11:31:31.528Z,51.86
2019-02-21T11:34:01.664Z,51.91
2019-02-21T11:36:31.504Z,52.10
2019-02-21T11:39:01.385Z,51.56
2019-02-21T11:41:31.301Z,50.20
2019-02-21T11:44:01.262Z,50.55
2019-02-21T11:46:31.208Z,50.91
2019-02-21T11:49:01.067Z,51.46
2019-02-21T11:51:31.167Z,51.32
2019-02-21T11:54:01.381Z,51.25
2019-02-21T11:56:31.204Z,50.95
2019-02-21T11:59:01.433Z,52.36
2019-02-21T12:01:31.323Z,50.04
2019-02-21T12:04:01.164Z,49.01
2019-02-21T12:06:31.017Z,47.57
2019-02-21T12:09:00.878Z,48.41
2019-02-21T12:11:30.767Z,48.45
2019-02-21T12:14:00.837Z,49.74
2019-02-21T12:16:30.688Z,50.02
2019-02-21T12:19:00.762Z,49.69
2019-02-21T12:21:30.941Z,48.99
2019-02-21T12:24:00.782Z,48.53
2019-02-21T12:26:30.913Z,47.61
2019-02-21T12:29:00.799Z,47.32
2019-02-21T12:31:30.919Z,47.13
2019-02-21T12:34:01.011Z,47.22
2019-02-21T12:36:31.163Z,46.35
2019-02-21T12:39:01.240Z,47.77
2019-02-21T12:41:31.320Z,47.99
2019-02-21T12:44:01.183Z,46.74
2019-02-21T12:46:31.251Z,46.53
2019-02-21T12:49:01.319Z,46.69
2019-02-21T12:51:31.224Z,48.19
2019-02-21T12:54:01.332Z,48.91
2019-02-21T12:56:31.161Z,49.49
2019-02-21T12:59:01.126Z,49.85
2019-02-21T13:01:31.218Z,50.03
2019-02-21T13:04:01.316Z,49.96
2019-02-21T13:06:31.182Z,50.13
2019-02-21T13:09:01.016Z,49.62
2019-02-21T13:11:30.900Z,48.85
2019-02-21T13:14:00.796Z,50.18
2019-02-21T13:16:30.694Z,50.85
2019-02-21T13:19:00.579Z,50.81
2019-02-21T13:21:30.490Z,51.75
2019-02-21T13:24:00.844Z,52.04
2019-02-21T13:26:30.686Z,53.68
2019-02-21T13:29:00.822Z,53.56
2019-02-21T13:31:30.724Z,54.39
2019-02-21T13:34:00.567Z,55.14
2019-02-21T13:36:30.452Z,55.69
2019-02-21T13:39:00.551Z,55.64
2019-02-21T13:41:30.692Z,55.69
2019-02-21T13:44:00.565Z,55.95
2019-02-21T13:46:37.370Z,56.19
2019-02-21T13:49:02.093Z,56.27
2019-02-21T13:51:31.972Z,56.75
2019-02-21T13:54:01.871Z,56.85
2019-02-21T13:56:32.236Z,57.16
2019-02-21T13:59:02.085Z,57.03
2019-02-21T14:01:32.209Z,57.03
2019-02-21T14:04:02.052Z,57.25
2019-02-21T14:06:31.939Z,57.05
2019-02-21T14:09:01.772Z,56.92
2019-02-21T14:11:31.928Z,57.20
2019-02-21T14:14:02.036Z,57.45
2019-02-21T14:16:31.967Z,57.27
2019-02-21T14:19:01.821Z,57.52
2019-02-21T14:21:31.951Z,57.24
2019-02-21T14:24:01.906Z,56.53
2019-02-21T14:26:31.776Z,55.87
2019-02-21T14:29:01.897Z,55.53
2019-02-21T14:31:33.664Z,55.06
2019-02-21T14:34:03.365Z,54.77
2019-02-21T14:36:33.198Z,54.90
2019-02-21T14:39:04.264Z,55.23
2019-02-21T14:41:34.203Z,54.56
2019-02-21T14:44:04.064Z,54.88
2019-02-21T14:46:34.417Z,54.24
2019-02-21T14:49:04.297Z,53.16
2019-02-21T14:51:34.164Z,53.56
2019-02-21T14:54:04.131Z,53.01
2019-02-21T14:56:34.101Z,53.77
2019-02-21T14:59:03.982Z,54.02
2019-02-21T15:01:33.940Z,55.29
2019-02-21T15:04:03.801Z,55.29
2019-02-21T15:06:34.162Z,54.99
2019-02-21T15:09:04.419Z,55.72
2019-02-21T15:11:34.321Z,56.04
2019-02-21T15:14:04.196Z,56.52
2019-02-21T15:16:34.646Z,56.32
2019-02-21T15:19:04.539Z,56.43
2019-02-21T15:21:34.423Z,56.60
2019-02-21T15:24:04.564Z,57.46
2019-02-21T15:26:34.715Z,57.33
2019-02-21T15:29:04.583Z,57.26
2019-02-21T15:31:35.168Z,57.03
2019-02-21T15:34:05.036Z,57.90
2019-02-21T15:36:38.286Z,57.93
2019-02-21T15:39:09.040Z,57.93
2019-02-21T15:41:38.864Z,58.04
2019-02-21T15:44:08.948Z,58.27
2019-02-21T15:46:38.823Z,58.68
2019-02-21T15:49:08.698Z,58.70
2019-02-21T15:51:38.566Z,58.70
2019-02-21T15:54:08.850Z,58.98
2019-02-21T15:56:39.054Z,59.36
2019-02-21T15:59:09.182Z,59.41
2019-02-21T16:01:47.071Z,59.93
2019-02-21T16:04:10.794Z,60.20
2019-02-21T16:06:51.138Z,60.33
2019-02-21T16:09:16.270Z,60.53
2019-02-21T16:11:44.304Z,60.83
2019-02-21T16:14:14.148Z,61.16
2019-02-21T16:16:44.050Z,61.25
2019-02-21T16:19:14.555Z,61.39
2019-02-21T16:21:44.450Z,61.45
2019-02-21T16:24:14.561Z,61.74
2019-02-21T16:26:44.700Z,61.82
2019-02-21T16:29:14.603Z,62.02
2019-02-21T16:31:44.563Z,63.33
2019-02-21T16:34:14.401Z,62.37
2019-02-21T16:36:44.281Z,62.89
2019-02-21T16:39:14.256Z,63.08
2019-02-21T16:41:44.438Z,62.94
2019-02-21T16:44:14.538Z,63.84
2019-02-21T16:46:44.505Z,63.61
2019-02-21T16:49:14.423Z,63.64
2019-02-21T16:51:44.570Z,64.41
2019-02-21T16:54:14.458Z,64.09
2019-02-21T16:56:44.588Z,63.93
2019-02-21T16:59:14.734Z,64.00
2019-02-21T17:01:44.692Z,65.07
2019-02-21T17:04:14.938Z,65.52
2019-02-21T17:06:45.242Z,65.94
2019-02-21T17:09:15.480Z,66.16
2019-02-21T17:11:45.525Z,65.88
2019-02-21T17:14:15.475Z,66.07
2019-02-21T17:16:45.701Z,66.23
2019-02-21T17:19:15.698Z,66.80
2019-02-21T17:21:45.576Z,67.30
2019-02-21T17:24:15.576Z,67.80
2019-02-21T17:26:45.676Z,70.30
2019-02-21T17:29:15.758Z,72.10
2019-02-21T17:31:45.981Z,72.71
2019-02-21T17:34:16.206Z,73.48
2019-02-21T17:36:46.106Z,74.39
2019-02-21T17:39:16.227Z,74.79
2019-02-21T17:41:46.109Z,74.34
2019-02-21T17:44:15.997Z,74.54
2019-02-21T17:46:45.887Z,74.74
2019-02-21T17:49:16.004Z,74.81
2019-02-21T17:51:45.902Z,75.01
2019-02-21T17:54:15.785Z,75.14
2019-02-21T17:56:45.667Z,75.26
2019-02-21T17:59:15.628Z,75.10
2019-02-21T18:01:45.509Z,75.08
2019-02-21T18:04:15.398Z,74.99
2019-02-21T18:06:45.272Z,74.85
2019-02-21T18:09:16.452Z,74.74
2019-02-21T18:11:46.293Z,74.96
2019-02-21T18:14:16.233Z,74.62
2019-02-21T18:16:46.160Z,74.76
2019-02-21T18:19:16.003Z,74.85
2019-02-21T18:21:45.893Z,75.64
2019-02-21T18:24:15.862Z,75.75
2019-02-21T18:26:45.808Z,75.95
2019-02-21T18:29:15.766Z,76.31
2019-02-21T18:31:45.618Z,76.28
2019-02-21T18:34:15.717Z,76.37
2019-02-21T18:36:45.879Z,76.81
2019-02-21T18:39:17.065Z,78.45
2019-02-21T18:41:46.971Z,80.68
2019-02-21T18:44:16.864Z,81.17
2019-02-21T18:46:46.759Z,81.54
2019-02-21T18:49:16.655Z,81.59
2019-02-21T18:51:46.527Z,82.18
2019-02-21T18:54:16.465Z,82.22
2019-02-21T18:56:46.536Z,82.40
2019-02-21T18:59:16.716Z,83.16
2019-02-21T19:01:46.597Z,83.76
2019-02-21T19:04:16.707Z,83.69
2019-02-21T19:06:46.673Z,83.87
2019-02-21T19:09:16.826Z,84.08
2019-02-21T19:11:46.929Z,84.37
2019-02-21T19:14:17.132Z,84.29
2019-02-21T19:16:47.249Z,84.45
2019-02-21T19:19:17.080Z,84.71
2019-02-21T19:21:47.183Z,84.84
2019-02-21T19:24:17.149Z,84.89
2019-02-21T19:26:47.007Z,85.00
2019-02-21T19:29:17.084Z,85.00
2019-02-21T19:31:47.222Z,85.43
2019-02-21T19:34:17.137Z,85.52
2019-02-21T19:36:47.175Z,86.14
2019-02-21T19:39:17.113Z,86.59
2019-02-21T19:41:47.222Z,87.15
2019-02-21T19:44:17.091Z,87.69
2019-02-21T19:46:47.009Z,88.07
2019-02-21T19:49:17.134Z,88.30
2019-02-21T19:51:47.401Z,88.64
2019-02-21T19:54:17.316Z,89.07
2019-02-21T19:56:47.801Z,89.26
2019-02-21T19:59:18.176Z,89.34
2019-02-21T20:01:48.344Z,89.54
2019-02-21T20:04:18.250Z,89.66
2019-02-21T20:06:48.203Z,90.10
2019-02-21T20:09:18.142Z,90.50
2019-02-21T20:11:48.004Z,90.89
2019-02-21T20:14:17.860Z,91.25
2019-02-21T20:16:48.418Z,91.65
2019-02-21T20:19:18.351Z,91.92
2019-02-21T20:21:48.499Z,92.25
2019-02-21T20:24:18.460Z,92.88
2019-02-21T20:26:48.361Z,93.37
2019-02-21T20:29:18.575Z,93.69
2019-02-21T20:31:48.568Z,93.97
2019-02-21T20:34:18.485Z,94.10
2019-02-21T20:36:51.348Z,94.41
2019-02-21T20:39:20.721Z,94.74
2019-02-21T20:41:50.639Z,95.26
2019-02-21T20:44:20.807Z,95.57
2019-02-21T20:46:50.942Z,95.93
2019-02-21T20:49:21.073Z,96.11
2019-02-21T20:51:51.331Z,96.40
2019-02-21T20:54:21.233Z,96.60
2019-02-21T20:56:51.756Z,96.87
2019-02-21T20:59:21.992Z,97.06
2019-02-21T21:01:52.352Z,97.11
2019-02-21T21:04:22.329Z,97.21
2019-02-21T21:10:38.664Z,97.13
2019-02-21T21:13:09.185Z,96.77
2019-02-21T21:15:39.574Z,96.52
2019-02-21T21:18:09.675Z,96.30
2019-02-21T21:20:39.535Z,96.16
2019-02-21T21:23:10.651Z,95.95
2019-02-21T21:25:40.536Z,95.74
2019-02-21T21:28:10.873Z,95.18
2019-02-21T21:30:41.159Z,94.71
2019-02-21T21:33:11.039Z,94.35
2019-02-21T21:35:41.197Z,94.08
2019-02-21T21:38:11.059Z,93.92
2019-02-21T21:40:40.975Z,93.87
2019-02-21T21:43:13.986Z,93.66
2019-02-21T21:45:43.885Z,93.39
2019-02-21T21:48:13.747Z,93.31
2019-02-21T21:50:44.169Z,93.14
2019-02-21T21:53:14.042Z,93.20
2019-02-21T21:55:43.921Z,93.15
2019-02-21T21:58:13.786Z,93.25
2019-02-21T22:00:44.243Z,93.27
2019-02-21T22:03:14.277Z,93.53
2019-02-21T22:05:44.103Z,93.42
2019-02-21T22:08:14.009Z,93.46
2019-02-21T22:10:43.848Z,93.60
2019-02-21T22:13:13.750Z,93.72
2019-02-21T22:15:43.864Z,93.84
2019-02-21T22:18:13.728Z,93.92
2019-02-21T22:20:43.638Z,93.98
2019-02-21T22:23:13.541Z,93.97
2019-02-21T22:25:43.373Z,93.96
2019-02-21T22:28:13.471Z,94.07
2019-02-21T22:30:43.654Z,94.18
2019-02-21T22:33:13.518Z,94.45
2019-02-21T22:35:43.393Z,94.78
2019-02-21T22:38:13.293Z,95.27
2019-02-21T22:40:43.420Z,95.89
2019-02-21T22:43:13.370Z,96.40
2019-02-21T22:45:43.487Z,96.91
2019-02-21T22:48:13.668Z,97.47
2019-02-21T22:50:43.793Z,97.92
2019-02-21T22:53:13.734Z,98.32
2019-02-21T22:55:43.872Z,98.62
2019-02-21T22:58:14.284Z,98.89
2019-02-21T23:01:06.463Z,99.19
2019-02-21T23:03:56.332Z,99.45
2019-02-21T23:07:07.312Z,99.66
2019-02-21T23:09:37.651Z,99.73
2019-02-21T23:12:08.032Z,99.79
2019-02-21T23:14:37.984Z,99.73
2019-02-21T23:17:08.079Z,99.60
2019-02-21T23:19:37.983Z,99.48
2019-02-21T23:22:08.100Z,99.16
2019-02-21T23:24:37.964Z,98.96
2019-02-21T23:27:08.379Z,98.74
2019-02-21T23:29:38.488Z,98.48
2019-02-21T23:32:08.629Z,98.16
2019-02-21T23:34:40.377Z,97.92
2019-02-21T23:37:10.603Z,97.56
2019-02-21T23:39:40.692Z,97.31
2019-02-21T23:42:10.817Z,96.94
2019-02-21T23:44:40.732Z,96.73
2019-02-21T23:47:10.913Z,96.23
2019-02-21T23:49:40.985Z,95.99
2019-02-21T23:52:10.838Z,95.80
2019-02-21T23:54:40.711Z,95.60
2019-02-21T23:57:10.575Z,95.47
2019-02-21T23:59:41.014Z,95.36
